NCAR-RAP Real-Time Weather Data

Output produced by METARs form (17 October 2018  15:50 UTC)
found at http://weather.rap.ucar.edu/surface/
 
ROIG 171100Z 04010KT 9999 FEW015 BKN050 BKN090 24/22 Q1011
ROIG 171000Z 02006KT 9999 FEW015 BKN050 23/22 Q1010
ROIG 170900Z 35005KT 9999 -SHRA FEW014 SCT019 BKN045 23/22 Q1010
ROIG 170800Z 02008KT 9999 FEW015 BKN025 BKN035 24/22 Q1009
ROIG 170700Z 02010KT 9999 FEW015 BKN024 25/23 Q1009
ROIG 170600Z 02013KT 9999 FEW015 BKN022 24/22 Q1009
ROIG 170500Z 01010KT 9999 VCSH FEW013 BKN020 BKN040 24/23 Q1009
ROIG 170400Z 03012KT 7000 -SHRA FEW005 BKN010 BKN016 23/23 Q1010
ROIG 170347Z 03012KT 8000 -SHRA FEW005 BKN011 BKN017 23/23 Q1010 RMK 2ST005 5CU011 7CU017 A2984
ROIG 170333Z 03015KT 7000 R04/1200VP1800D -SHRA FEW006 BKN011 BKN016 23/23 Q1010 RMK 2ST006 5CU011 7CU016 A2984
ROIG 170300Z 04014KT 9999 -SHRA FEW007 BKN010 BKN015 24/24 Q1010
ROIG 170200Z 04007KT 9999 -SHRA FEW006 BKN010 BKN016 23/23 Q1011
ROIG 170100Z 02006KT 340V040 9999 -SHRA FEW007 BKN011 BKN016 23/23 Q1011
ROIG 170000Z 02004KT 340V050 9999 -SHRA FEW005 SCT021 BKN050 23/23 Q1011
ROIG 162323Z 03005KT 8000 R04/1800U -SHRA FEW005 SCT012 BKN020 23/23 Q1011 RMK 1ST005 4CU012 7CU020 A2986
ROIG 162300Z 07004KT 7000 R04/1200VP1800U SHRA FEW006 SCT010 BKN016 23/23 Q1011
ROIG 162232Z 08005KT 9999 R04/0650V1500N SHRA FEW005 SCT010 BKN017 23/23 Q1011 RMK 2ST005 4CU010 7CU017 A2985
ROIG 162227Z 07004KT 030V090 9999 R04/0650VP1800D +SHRA FEW005 SCT010 BKN017 23/23 Q1011 RMK 2ST005 4CU010 7CU017 A2985
ROIG 162222Z 06003KT 030V090 9999 SHRA FEW005 SCT010 BKN017 23/23 Q1011 RMK 2ST005 4CU010 7CU017 A2985
ROIG 162200Z 01004KT 9999 -SHRA FEW006 SCT010 BKN015 FEW023TCU 23/23 Q1010
ROIG 162100Z VRB01KT 9999 -SHRA FEW015 BKN022 BKN050 23/23 Q1010
ROIG 162037Z 31003KT 260V350 9999 SHRA FEW015 BKN028 FEW033TCU BKN070 23/23 Q1010 RMK 1CU015 6CU028 1TCU033 7AC070 A2983 TCU 10KM E MOV E
ROIG 161114Z 21003KT 160V240 9999 -SHRA FEW012 SCT030 BKN070 24/24 Q1011 RMK 1CU012 3CU030 7AC070 A2985
ROIG 161100Z VRB02KT 5000 SHRA FEW012 SCT030 BKN070 24/24 Q1010
ROIG 161038Z 00000KT 5000 SHRA FEW020 SCT030 BKN050 24/24 Q1011 RMK 1CU020 3CU030 7SC050 A2985
ROIG 161000Z 22003KT 9999 VCSH FEW020 FEW025CB SCT060 BKN080 25/24 Q1010
ROIG 160900Z 18004KT 9999 FEW020 SCT045 BKN080 26/24 Q1010
ROIG 160800Z 15004KT 120V190 9999 FEW015 SCT050 BKN080 26/23 Q1009
ROIG 160700Z 17003KT 120V200 9999 FEW015 SCT045 BKN080 26/23 Q1010
ROIG 160600Z 09004KT 060V120 9999 -SHRA FEW015 SCT032 BKN050 26/23 Q1010
ROIG 160500Z 10005KT 060V140 9999 VCSH FEW015 SCT027 27/23 Q1010
ROIG 160400Z 08006KT 050V120 9999 FEW015 27/23 Q1011
ROIG 160300Z 09007KT 050V110 9999 FEW014 28/24 Q1011
ROIG 160200Z 06005KT 020V100 9999 FEW014 27/23 Q1012
ROIG 160100Z 07006KT 040V100 9999 FEW015 27/24 Q1012
ROIG 160000Z 07006KT 9999 FEW015 27/24 Q1012
ROIG 152300Z 06006KT 9999 FEW014 26/24 Q1012
ROIG 152200Z 04003KT 9999 FEW015 SCT040 23/23 Q1012
ROIG 152100Z 06006KT 9999 FEW014 BKN210 24/23 Q1011
ROIG 151100Z 04011KT 9999 -SHRA SCT012 BKN038 25/24 Q1012
ROIG 151000Z 04011KT 9999 FEW012 BKN021 BKN037 25/24 Q1012
ROIG 150900Z 04011KT 9999 VCSH FEW012 SCT031 BKN050 25/24 Q1012
ROIG 150800Z 05010KT 9999 FEW012 BKN027 26/24 Q1011
ROIG 150700Z 05011KT 9999 FEW012 SCT017 27/24 Q1011
ROIG 150600Z 05011KT 9999 FEW013 SCT017 27/24 Q1011
ROIG 150500Z 05011KT 9999 FEW016 SCT034 27/24 Q1011
ROIG 150400Z 05010KT 9999 FEW014 BKN023 27/23 Q1012